createdAt,value
2019-03-02T00:00:03.853Z,18.20
2019-03-02T00:01:03.851Z,17.60
2019-03-02T00:02:03.832Z,17.80
2019-03-02T00:03:03.826Z,17.30
2019-03-02T00:04:09.531Z,17.90
2019-03-02T00:05:03.841Z,17.40
2019-03-02T00:06:04.007Z,18.10
2019-03-02T00:07:03.798Z,16.70
2019-03-02T00:08:03.791Z,17.80
2019-03-02T00:09:03.987Z,17.90
2019-03-02T00:10:06.560Z,18.70
2019-03-02T00:11:03.771Z,17.80
2019-03-02T00:12:03.773Z,17.30
2019-03-02T00:13:07.080Z,17.30
2019-03-02T00:14:03.766Z,18.20
2019-03-02T00:15:03.768Z,18.70
2019-03-02T00:16:04.278Z,16.80
2019-03-02T00:17:03.766Z,17.50
2019-03-02T00:18:03.740Z,16.30
2019-03-02T00:19:06.770Z,17.80
2019-03-02T00:20:03.726Z,17.10
2019-03-02T00:21:03.727Z,17.50
2019-03-02T00:22:06.825Z,17.20
2019-03-02T00:23:03.916Z,16.80
2019-03-02T00:24:03.708Z,17.60
2019-03-02T00:25:03.685Z,17.50
2019-03-02T00:26:06.322Z,17.70
2019-03-02T00:27:03.677Z,17.80
2019-03-02T00:28:03.893Z,17.80
2019-03-02T00:29:03.699Z,18.20
2019-03-02T00:30:03.671Z,18.10
2019-03-02T00:31:03.656Z,18.30
2019-03-02T00:32:05.939Z,18.30
2019-03-02T00:33:03.651Z,18.50
2019-03-02T00:34:03.643Z,18.70
2019-03-02T00:35:07.125Z,18.70
2019-03-02T00:36:03.835Z,18.90
2019-03-02T00:37:03.620Z,19.10
2019-03-02T00:38:04.844Z,19.90
2019-03-02T00:39:03.600Z,20.90
2019-03-02T00:40:04.716Z,20.50
2019-03-02T00:41:03.712Z,20.50
2019-03-02T00:42:03.587Z,21.10
2019-03-02T00:43:03.570Z,20.60
2019-03-02T00:44:04.010Z,20.40
2019-03-02T00:45:03.573Z,19.60
2019-03-02T00:46:03.571Z,20.50
2019-03-02T00:47:03.561Z,21.10
2019-03-02T00:48:03.545Z,20.40
2019-03-02T00:49:03.535Z,20.80
2019-03-02T00:50:03.528Z,20.70
2019-03-02T00:51:03.724Z,21.10
2019-03-02T00:52:03.515Z,21.00
2019-03-02T00:53:03.708Z,21.00
2019-03-02T00:54:03.715Z,21.40
2019-03-02T00:55:03.506Z,20.90
2019-03-02T00:56:04.160Z,21.50
2019-03-02T00:57:03.483Z,21.80
2019-03-02T00:58:03.514Z,21.90
2019-03-02T00:59:03.899Z,21.80
2019-03-02T01:00:03.670Z,21.80
2019-03-02T01:01:03.464Z,22.90
2019-03-02T01:02:04.349Z,23.60
2019-03-02T01:03:03.655Z,23.80
2019-03-02T01:04:03.436Z,23.70
2019-03-02T01:05:03.436Z,24.70
2019-03-02T01:06:03.426Z,24.60
2019-03-02T01:07:03.435Z,24.60
2019-03-02T01:08:03.412Z,24.80
2019-03-02T01:09:03.421Z,24.80
2019-03-02T01:10:03.601Z,24.80
2019-03-02T01:11:03.392Z,27.00
2019-03-02T01:12:05.866Z,26.70
2019-03-02T01:13:03.383Z,26.90
2019-03-02T01:14:03.379Z,25.20
2019-03-02T01:15:05.157Z,25.80
2019-03-02T01:16:03.380Z,26.60
2019-03-02T01:17:03.572Z,26.40
2019-03-02T01:18:03.738Z,27.30
2019-03-02T01:19:03.352Z,26.20
2019-03-02T01:20:03.548Z,26.90
2019-03-02T01:21:03.919Z,26.30
2019-03-02T01:22:03.335Z,26.70
2019-03-02T01:23:03.532Z,26.60
2019-03-02T01:24:04.488Z,27.80
2019-03-02T01:25:03.321Z,26.50
2019-03-02T01:26:03.534Z,27.20
2019-03-02T01:27:03.306Z,27.50
2019-03-02T01:28:06.583Z,27.10
2019-03-02T01:29:03.280Z,26.60
2019-03-02T01:30:03.291Z,28.20
2019-03-02T01:31:05.137Z,28.90
2019-03-02T01:32:03.258Z,28.60
2019-03-02T01:33:03.277Z,29.60
2019-03-02T01:34:04.752Z,29.60
2019-03-02T01:35:03.265Z,28.20
2019-03-02T01:36:03.234Z,28.80
2019-03-02T01:37:04.809Z,28.50
2019-03-02T01:38:03.237Z,27.90
2019-03-02T01:39:03.423Z,28.60
2019-03-02T01:40:04.895Z,28.70
2019-03-02T01:41:03.414Z,27.80
2019-03-02T01:42:03.409Z,27.70
2019-03-02T01:43:04.886Z,27.80
2019-03-02T01:44:03.202Z,27.90
2019-03-02T01:45:03.190Z,29.00
2019-03-02T01:46:04.524Z,28.00
2019-03-02T01:47:03.401Z,29.70
2019-03-02T01:48:03.373Z,28.80
2019-03-02T01:49:03.148Z,28.80
2019-03-02T01:50:03.155Z,28.90
2019-03-02T01:51:03.367Z,28.80
2019-03-02T01:52:03.166Z,29.50
2019-03-02T01:53:03.147Z,29.40
2019-03-02T01:54:03.140Z,29.20
2019-03-02T01:55:03.115Z,28.70
2019-03-02T01:56:06.159Z,29.30
2019-03-02T01:57:03.108Z,29.40
2019-03-02T01:58:03.102Z,30.80
2019-03-02T01:59:03.996Z,29.40
2019-03-02T02:00:03.097Z,30.20
2019-03-02T02:01:03.080Z,30.40
2019-03-02T02:02:03.090Z,29.60
2019-03-02T02:03:03.072Z,30.50
2019-03-02T02:04:03.093Z,30.30
2019-03-02T02:05:03.058Z,30.90
2019-03-02T02:06:03.717Z,31.10
2019-03-02T02:07:03.265Z,32.20
2019-03-02T02:08:03.044Z,32.60
2019-03-02T02:09:05.633Z,31.60
2019-03-02T02:10:03.034Z,30.70
2019-03-02T02:11:03.221Z,30.50
2019-03-02T02:12:03.025Z,30.40
2019-03-02T02:13:06.129Z,31.20
2019-03-02T02:14:03.215Z,31.10
2019-03-02T02:15:03.007Z,30.30
2019-03-02T02:16:05.689Z,30.20
2019-03-02T02:17:02.976Z,29.70
2019-03-02T02:18:03.178Z,31.60
2019-03-02T02:19:03.373Z,32.60
2019-03-02T02:20:02.961Z,31.00
2019-03-02T02:21:02.968Z,29.70
2019-03-02T02:22:03.165Z,30.50
2019-03-02T02:23:02.949Z,30.80
2019-03-02T02:24:02.934Z,31.80
2019-03-02T02:25:02.925Z,32.10
2019-03-02T02:26:02.925Z,32.50
2019-03-02T02:27:02.931Z,30.60
2019-03-02T02:28:03.117Z,30.40
2019-03-02T02:29:04.495Z,30.60
2019-03-02T02:30:02.917Z,32.50
2019-03-02T02:31:06.376Z,30.40
2019-03-02T02:32:02.892Z,30.80
2019-03-02T02:33:05.617Z,30.20
2019-03-02T02:34:02.874Z,33.80
2019-03-02T02:35:03.101Z,35.20
2019-03-02T02:36:03.073Z,34.20
2019-03-02T02:37:02.851Z,34.20
2019-03-02T02:38:02.854Z,32.50
2019-03-02T02:39:02.842Z,32.90
2019-03-02T02:40:02.845Z,32.70
2019-03-02T02:41:02.837Z,31.90
2019-03-02T02:42:05.305Z,31.50
2019-03-02T02:43:02.829Z,29.80
2019-03-02T02:44:03.025Z,29.80
2019-03-02T02:45:03.015Z,30.50
2019-03-02T02:46:02.840Z,30.20
2019-03-02T02:47:07.244Z,29.60
2019-03-02T02:48:02.801Z,30.80
2019-03-02T02:49:05.419Z,31.20
2019-03-02T02:50:02.788Z,31.70
2019-03-02T02:51:04.287Z,30.70
2019-03-02T02:52:02.777Z,30.50
2019-03-02T02:53:06.980Z,31.50
2019-03-02T02:54:02.744Z,32.30
2019-03-02T02:55:04.313Z,30.70
2019-03-02T02:56:02.791Z,30.30
2019-03-02T02:57:02.736Z,31.70
2019-03-02T02:58:02.765Z,31.90
2019-03-02T02:59:02.723Z,32.00
2019-03-02T03:00:02.915Z,32.50
2019-03-02T03:01:02.714Z,34.10
2019-03-02T03:02:06.427Z,32.20
2019-03-02T03:03:02.714Z,33.30
2019-03-02T03:04:02.711Z,32.30
2019-03-02T03:05:02.686Z,33.80
2019-03-02T03:06:02.672Z,32.80
2019-03-02T03:07:07.327Z,32.30
2019-03-02T03:08:02.662Z,32.70
2019-03-02T03:09:05.145Z,32.60
2019-03-02T03:10:02.654Z,33.20
2019-03-02T03:11:06.644Z,33.30
2019-03-02T03:12:02.638Z,33.00
2019-03-02T03:13:04.207Z,33.00
2019-03-02T03:14:02.633Z,35.00
2019-03-02T03:15:02.628Z,34.10
2019-03-02T03:16:02.635Z,33.60
2019-03-02T03:17:02.616Z,33.10
2019-03-02T03:18:07.300Z,33.60
2019-03-02T03:19:02.590Z,34.30
2019-03-02T03:20:05.502Z,35.20
2019-03-02T03:21:02.603Z,34.20
2019-03-02T03:22:07.346Z,34.40
2019-03-02T03:23:02.591Z,33.70
2019-03-02T03:24:03.802Z,35.10
2019-03-02T03:25:04.144Z,33.90
2019-03-02T03:26:02.766Z,35.10
2019-03-02T03:27:02.752Z,35.00
2019-03-02T03:28:02.548Z,34.70
2019-03-02T03:29:05.192Z,35.80
2019-03-02T03:30:02.740Z,36.40
2019-03-02T03:31:02.524Z,36.10
2019-03-02T03:32:09.203Z,35.60
2019-03-02T03:33:02.553Z,36.50
2019-03-02T03:34:02.514Z,36.00
2019-03-02T03:35:15.671Z,35.60
2019-03-02T03:36:02.496Z,37.20
2019-03-02T03:37:02.482Z,37.90
2019-03-02T03:38:02.574Z,36.90
2019-03-02T03:39:06.750Z,37.30
2019-03-02T03:40:02.479Z,35.90
2019-03-02T03:41:05.356Z,38.40
2019-03-02T03:42:02.452Z,37.20
2019-03-02T03:43:03.535Z,37.50
2019-03-02T03:44:02.451Z,37.20
2019-03-02T03:45:04.394Z,39.10
2019-03-02T03:46:02.433Z,39.20
2019-03-02T03:47:02.451Z,39.80
2019-03-02T03:48:02.641Z,39.10
2019-03-02T03:49:02.423Z,38.70
2019-03-02T03:50:02.405Z,38.00
2019-03-02T03:51:02.416Z,38.20
2019-03-02T03:52:08.432Z,38.20
2019-03-02T03:53:02.397Z,38.50
2019-03-02T03:54:07.132Z,39.10
2019-03-02T03:55:02.390Z,39.70
2019-03-02T03:56:04.159Z,38.80
2019-03-02T03:57:02.367Z,37.50
2019-03-02T03:58:02.739Z,38.10
2019-03-02T03:59:02.574Z,39.20
2019-03-02T04:00:02.351Z,39.00
2019-03-02T04:01:02.358Z,39.50
2019-03-02T04:02:02.341Z,38.70
2019-03-02T04:03:02.338Z,38.50
2019-03-02T04:04:02.343Z,39.70
2019-03-02T04:05:07.192Z,39.00
2019-03-02T04:06:02.315Z,40.20
2019-03-02T04:07:06.307Z,39.00
2019-03-02T04:08:02.301Z,39.40
2019-03-02T04:09:03.128Z,39.80
2019-03-02T04:10:02.505Z,39.70
2019-03-02T04:11:04.567Z,39.40
2019-03-02T04:12:02.279Z,39.30
2019-03-02T04:13:04.936Z,38.60
2019-03-02T04:14:02.275Z,39.00
2019-03-02T04:15:03.124Z,40.60
2019-03-02T04:16:02.466Z,40.00
2019-03-02T04:17:02.249Z,40.90
2019-03-02T04:18:02.241Z,39.20
2019-03-02T04:19:02.456Z,41.10
2019-03-02T04:20:02.260Z,40.70
2019-03-02T04:21:02.234Z,40.30
2019-03-02T04:22:06.484Z,41.10
2019-03-02T04:23:02.423Z,41.60
2019-03-02T04:24:03.241Z,42.20
2019-03-02T04:25:02.398Z,42.30
2019-03-02T04:26:02.400Z,41.60
2019-03-02T04:27:02.390Z,41.70
2019-03-02T04:28:02.189Z,42.70
2019-03-02T04:29:09.052Z,41.70
2019-03-02T04:30:02.168Z,41.40
2019-03-02T04:31:04.736Z,39.80
2019-03-02T04:32:02.361Z,41.80
2019-03-02T04:33:06.075Z,41.10
2019-03-02T04:34:02.147Z,44.60
2019-03-02T04:35:02.138Z,43.80
2019-03-02T04:36:02.168Z,42.60
2019-03-02T04:37:02.131Z,42.90
2019-03-02T04:38:02.340Z,43.60
2019-03-02T04:39:02.120Z,43.60
2019-03-02T04:40:02.341Z,43.30
2019-03-02T04:41:04.058Z,45.90
2019-03-02T04:42:02.298Z,43.30
2019-03-02T04:43:02.310Z,44.40
2019-03-02T04:44:02.101Z,43.80
2019-03-02T04:45:04.997Z,45.60
2019-03-02T04:46:02.285Z,45.20
2019-03-02T04:47:02.097Z,45.20
2019-03-02T04:48:03.338Z,46.40
2019-03-02T04:49:02.048Z,45.90
2019-03-02T04:50:02.054Z,46.10
2019-03-02T04:51:02.651Z,47.40
2019-03-02T04:52:02.241Z,46.80
2019-03-02T04:53:02.039Z,48.10
2019-03-02T04:54:03.026Z,45.80
2019-03-02T04:55:02.025Z,48.70
2019-03-02T04:56:02.008Z,47.90
2019-03-02T04:57:02.025Z,49.40
2019-03-02T04:58:02.203Z,47.60
2019-03-02T04:59:03.112Z,48.60
2019-03-02T05:00:01.991Z,47.10
2019-03-02T05:01:03.933Z,48.20
2019-03-02T05:02:01.976Z,48.60
2019-03-02T05:03:01.991Z,49.00
2019-03-02T05:04:01.979Z,48.30
2019-03-02T05:05:04.820Z,49.40
2019-03-02T05:06:01.972Z,48.80
2019-03-02T05:07:01.946Z,47.70
2019-03-02T05:08:04.992Z,49.90
2019-03-02T05:09:02.128Z,50.80
2019-03-02T05:10:01.946Z,50.30
2019-03-02T05:11:03.570Z,51.10
2019-03-02T05:12:01.918Z,50.40
2019-03-02T05:13:01.913Z,51.90
2019-03-02T05:14:04.308Z,50.50
2019-03-02T05:15:01.914Z,50.70
2019-03-02T05:16:01.912Z,50.00
2019-03-02T05:17:03.502Z,51.90
2019-03-02T05:18:01.887Z,51.50
2019-03-02T05:19:01.879Z,53.40
2019-03-02T05:20:04.805Z,53.20
2019-03-02T05:21:01.881Z,52.80
2019-03-02T05:22:01.853Z,53.30
2019-03-02T05:23:01.863Z,53.60
2019-03-02T05:24:03.384Z,53.10
2019-03-02T05:25:01.842Z,52.40
2019-03-02T05:26:01.827Z,54.30
2019-03-02T05:27:01.822Z,53.00
2019-03-02T05:28:03.758Z,52.60
2019-03-02T05:29:02.012Z,55.10
2019-03-02T05:30:01.822Z,54.80
2019-03-02T05:31:02.656Z,56.80
2019-03-02T05:32:01.800Z,54.00
2019-03-02T05:33:01.786Z,59.30
2019-03-02T05:34:04.495Z,58.40
2019-03-02T05:35:01.773Z,57.90
2019-03-02T05:36:01.775Z,60.80
2019-03-02T05:37:02.923Z,65.50
2019-03-02T05:38:01.767Z,68.40
2019-03-02T05:39:01.958Z,71.90
2019-03-02T05:40:01.742Z,77.80
2019-03-02T05:41:02.687Z,85.80
2019-03-02T05:42:01.735Z,89.40
2019-03-02T05:43:01.735Z,90.80
2019-03-02T05:44:01.722Z,92.70
2019-03-02T05:45:01.716Z,95.70
2019-03-02T05:46:01.717Z,94.90
2019-03-02T05:47:02.800Z,101.70
2019-03-02T05:48:04.870Z,104.20
2019-03-02T05:49:01.699Z,103.80
2019-03-02T05:50:01.692Z,104.40
2019-03-02T05:51:03.814Z,99.90
2019-03-02T05:52:01.670Z,100.10
2019-03-02T05:53:01.668Z,99.40
2019-03-02T05:54:02.588Z,101.60
2019-03-02T05:55:01.880Z,97.60
2019-03-02T05:56:01.643Z,99.10
2019-03-02T05:57:04.123Z,96.90
2019-03-02T05:58:01.634Z,96.00
2019-03-02T05:59:01.636Z,92.60
2019-03-02T06:00:03.013Z,92.10
2019-03-02T06:01:01.629Z,87.70
2019-03-02T06:02:01.622Z,88.80
2019-03-02T06:03:01.603Z,96.80
2019-03-02T06:04:01.596Z,98.10
2019-03-02T06:05:01.592Z,103.30
2019-03-02T06:06:01.593Z,99.00
2019-03-02T06:07:01.576Z,102.00
2019-03-02T06:08:01.577Z,101.70
2019-03-02T06:09:01.564Z,97.60
2019-03-02T06:10:01.570Z,98.50
2019-03-02T06:11:01.981Z,96.00
2019-03-02T06:12:01.559Z,95.40
2019-03-02T06:13:01.538Z,96.80
2019-03-02T06:14:01.549Z,93.20
2019-03-02T06:15:04.067Z,90.30
2019-03-02T06:16:01.533Z,88.90
2019-03-02T06:17:01.531Z,87.10
2019-03-02T06:18:04.497Z,83.30
2019-03-02T06:19:01.522Z,80.30
2019-03-02T06:20:01.516Z,73.00
2019-03-02T06:21:01.486Z,71.30
2019-03-02T06:22:01.503Z,71.70
2019-03-02T06:23:01.685Z,69.50
2019-03-02T06:24:05.046Z,69.30
2019-03-02T06:25:01.475Z,67.90
2019-03-02T06:26:01.468Z,63.70
2019-03-02T06:27:01.450Z,61.80
2019-03-02T06:28:01.452Z,61.40
2019-03-02T06:29:01.436Z,60.70
2019-03-02T06:30:04.814Z,58.40
2019-03-02T06:31:01.426Z,58.60
2019-03-02T06:32:01.417Z,59.90
2019-03-02T06:33:01.422Z,56.90
2019-03-02T06:34:01.418Z,56.50
2019-03-02T06:35:01.408Z,56.30
2019-03-02T06:36:04.936Z,55.60
2019-03-02T06:37:01.385Z,55.20
2019-03-02T06:38:01.383Z,53.80
2019-03-02T06:39:03.935Z,53.10
2019-03-02T06:40:01.376Z,53.80
2019-03-02T06:41:01.367Z,55.00
2019-03-02T06:42:01.356Z,55.80
2019-03-02T06:43:01.357Z,53.60
2019-03-02T06:44:01.364Z,54.80
2019-03-02T06:45:01.337Z,54.50
2019-03-02T06:46:01.352Z,51.20
2019-03-02T06:47:01.353Z,53.90
2019-03-02T06:48:01.332Z,51.90
2019-03-02T06:49:01.318Z,52.00
2019-03-02T06:50:01.534Z,53.40
2019-03-02T06:51:02.402Z,52.30
2019-03-02T06:52:01.291Z,52.50
2019-03-02T06:53:01.624Z,53.00
2019-03-02T06:54:01.280Z,51.90
2019-03-02T06:55:01.290Z,53.10
2019-03-02T06:56:01.861Z,51.70
2019-03-02T06:57:01.270Z,53.30
2019-03-02T06:58:01.266Z,52.60
2019-03-02T06:59:04.175Z,52.30
2019-03-02T07:00:01.460Z,52.00
2019-03-02T07:01:01.241Z,53.40
2019-03-02T07:02:01.238Z,52.20
2019-03-02T07:03:01.238Z,52.00
2019-03-02T07:04:01.230Z,51.40
2019-03-02T07:05:01.227Z,51.10
2019-03-02T07:06:01.225Z,51.70
2019-03-02T07:07:01.230Z,52.00
2019-03-02T07:08:01.197Z,54.50
2019-03-02T07:09:01.208Z,53.40
2019-03-02T07:10:01.186Z,52.20
2019-03-02T07:11:01.184Z,54.00
2019-03-02T07:12:01.201Z,51.40
2019-03-02T07:13:01.164Z,51.70
2019-03-02T07:14:01.156Z,53.00
2019-03-02T07:15:01.161Z,50.50
2019-03-02T07:16:01.148Z,51.00
2019-03-02T07:17:01.145Z,51.30
2019-03-02T07:18:01.983Z,52.50
2019-03-02T07:19:01.143Z,51.10
2019-03-02T07:20:01.129Z,49.40
2019-03-02T07:21:03.286Z,50.20
2019-03-02T07:22:01.140Z,50.00
2019-03-02T07:23:01.138Z,50.40
2019-03-02T07:24:01.114Z,51.40
2019-03-02T07:25:01.434Z,51.70
2019-03-02T07:26:01.096Z,49.80
2019-03-02T07:27:01.092Z,50.00
2019-03-02T07:28:01.960Z,49.70
2019-03-02T07:29:01.082Z,48.70
2019-03-02T07:30:01.058Z,49.00
2019-03-02T07:31:01.066Z,49.50
2019-03-02T07:32:01.043Z,48.10
2019-03-02T07:33:01.073Z,49.40
2019-03-02T07:34:01.030Z,48.90
2019-03-02T07:35:01.036Z,49.50
2019-03-02T07:36:01.242Z,50.70
2019-03-02T07:37:01.043Z,49.40
2019-03-02T07:38:01.241Z,48.80
2019-03-02T07:39:01.004Z,49.40
2019-03-02T07:40:00.996Z,50.90
2019-03-02T07:41:01.013Z,50.40
2019-03-02T07:42:00.985Z,51.60
2019-03-02T07:43:00.985Z,51.20
2019-03-02T07:44:00.984Z,48.90
2019-03-02T07:45:00.968Z,50.10
2019-03-02T07:46:01.170Z,50.70
2019-03-02T07:47:00.968Z,51.20
2019-03-02T07:48:01.603Z,51.20
2019-03-02T07:49:00.966Z,49.20
2019-03-02T07:50:00.950Z,51.00
2019-03-02T07:51:04.762Z,50.10
2019-03-02T07:52:00.931Z,50.10
2019-03-02T07:53:00.921Z,48.20
2019-03-02T07:54:02.136Z,48.40
2019-03-02T07:55:00.915Z,49.00
2019-03-02T07:56:00.910Z,47.90
2019-03-02T07:57:00.900Z,49.10
2019-03-02T07:58:00.907Z,47.30
2019-03-02T07:59:00.894Z,49.10
2019-03-02T08:00:02.281Z,47.30
2019-03-02T08:01:00.866Z,45.70
2019-03-02T08:02:01.066Z,47.20
2019-03-02T08:03:00.856Z,46.30
2019-03-02T08:04:01.056Z,46.30
2019-03-02T08:05:00.855Z,45.80
2019-03-02T08:06:01.329Z,45.60
2019-03-02T08:07:01.426Z,46.70
2019-03-02T08:08:00.824Z,46.90
2019-03-02T08:09:00.812Z,46.30
2019-03-02T08:10:02.106Z,46.30
2019-03-02T08:11:00.821Z,44.40
2019-03-02T08:12:00.801Z,46.80
2019-03-02T08:13:01.679Z,46.40
2019-03-02T08:14:00.799Z,44.70
2019-03-02T08:15:00.777Z,46.60
2019-03-02T08:16:03.220Z,46.50
2019-03-02T08:17:00.767Z,45.40
2019-03-02T08:18:00.770Z,44.20
2019-03-02T08:19:03.971Z,43.80
2019-03-02T08:20:00.769Z,44.30
2019-03-02T08:21:01.719Z,44.30
2019-03-02T08:22:00.733Z,43.90
2019-03-02T08:23:00.736Z,44.20
2019-03-02T08:24:00.733Z,42.80
2019-03-02T08:25:00.922Z,41.80
2019-03-02T08:26:00.712Z,42.90
2019-03-02T08:27:00.714Z,44.10
2019-03-02T08:28:00.705Z,43.40
2019-03-02T08:29:00.699Z,42.00
2019-03-02T08:30:00.696Z,40.90
2019-03-02T08:31:00.695Z,41.50
2019-03-02T08:32:00.690Z,42.20
2019-03-02T08:33:00.659Z,40.90
2019-03-02T08:34:00.655Z,40.50
2019-03-02T08:35:00.663Z,41.10
2019-03-02T08:36:00.649Z,41.00
2019-03-02T08:37:00.635Z,40.10
2019-03-02T08:38:01.654Z,38.40
2019-03-02T08:39:00.629Z,41.30
2019-03-02T08:40:02.024Z,40.30
2019-03-02T08:41:01.776Z,40.30
2019-03-02T08:42:00.604Z,40.30
2019-03-02T08:43:00.614Z,39.40
2019-03-02T08:44:00.603Z,39.00
2019-03-02T08:45:00.615Z,38.80
2019-03-02T08:46:03.643Z,40.10
2019-03-02T08:47:00.591Z,39.20
2019-03-02T08:48:00.565Z,38.70
2019-03-02T08:49:02.899Z,38.90
2019-03-02T08:50:00.551Z,38.60
2019-03-02T08:51:00.565Z,38.50
2019-03-02T08:52:00.553Z,37.70
2019-03-02T08:53:00.555Z,38.90
2019-03-02T08:54:00.531Z,39.30
2019-03-02T08:55:00.566Z,39.40
2019-03-02T08:56:00.545Z,39.00
2019-03-02T08:57:00.543Z,37.30
2019-03-02T08:58:00.514Z,39.10
2019-03-02T08:59:01.917Z,38.90
2019-03-02T09:00:00.497Z,37.70
2019-03-02T09:01:00.695Z,38.40
2019-03-02T09:02:00.486Z,37.30
2019-03-02T09:03:00.596Z,37.90
2019-03-02T09:04:00.475Z,37.10
2019-03-02T09:05:00.460Z,38.10
2019-03-02T09:06:00.457Z,38.80
2019-03-02T09:07:00.450Z,38.90
2019-03-02T09:08:00.445Z,38.40
2019-03-02T09:09:00.443Z,36.50
2019-03-02T09:10:00.434Z,37.70
2019-03-02T09:11:00.424Z,38.00
2019-03-02T09:12:00.426Z,37.00
2019-03-02T09:13:00.418Z,37.10
2019-03-02T09:14:00.409Z,36.60
2019-03-02T09:15:00.396Z,36.70
2019-03-02T09:16:01.413Z,36.90
2019-03-02T09:17:00.394Z,37.30
2019-03-02T09:18:00.392Z,36.70
2019-03-02T09:19:00.390Z,36.40
2019-03-02T09:20:00.771Z,36.50
2019-03-02T09:21:00.368Z,36.00
2019-03-02T09:22:00.362Z,36.80
2019-03-02T09:23:01.538Z,35.10
2019-03-02T09:24:00.352Z,36.80
2019-03-02T09:25:00.341Z,35.90
2019-03-02T09:26:01.053Z,37.10
2019-03-02T09:27:00.841Z,35.50
2019-03-02T09:28:00.335Z,36.40
2019-03-02T09:29:00.335Z,35.80
2019-03-02T09:30:00.423Z,35.20
2019-03-02T09:31:01.991Z,36.70
2019-03-02T09:32:00.311Z,35.60
2019-03-02T09:33:00.290Z,35.60
2019-03-02T09:34:01.142Z,36.40
2019-03-02T09:35:00.334Z,36.00
2019-03-02T09:36:00.492Z,35.40
2019-03-02T09:37:03.826Z,35.90
2019-03-02T09:38:00.262Z,36.80
2019-03-02T09:39:00.267Z,35.60
2019-03-02T09:40:00.256Z,37.20
2019-03-02T09:41:00.259Z,37.10
2019-03-02T09:42:01.459Z,36.70
2019-03-02T09:43:00.254Z,37.00
2019-03-02T09:44:01.709Z,36.70
2019-03-02T09:45:00.341Z,35.90
2019-03-02T09:46:00.207Z,37.20
2019-03-02T09:47:00.420Z,36.20
2019-03-02T09:48:00.212Z,37.40
2019-03-02T09:49:00.765Z,36.70
2019-03-02T09:50:00.317Z,37.10
2019-03-02T09:51:00.200Z,37.20
2019-03-02T09:52:00.192Z,37.20
2019-03-02T09:53:00.197Z,37.60
2019-03-02T09:54:00.190Z,37.80
2019-03-02T09:55:00.254Z,37.50
2019-03-02T09:56:00.358Z,37.20
2019-03-02T09:57:00.158Z,36.20
2019-03-02T09:58:00.221Z,36.80
2019-03-02T09:59:01.538Z,36.80
2019-03-02T10:00:00.353Z,36.30
2019-03-02T10:01:01.155Z,37.30
2019-03-02T10:02:00.128Z,36.40
2019-03-02T10:03:00.141Z,36.40
2019-03-02T10:04:03.046Z,34.30
2019-03-02T10:05:00.160Z,35.70
2019-03-02T10:06:00.108Z,34.80
2019-03-02T10:07:02.069Z,34.90
2019-03-02T10:08:00.084Z,33.60
2019-03-02T10:09:00.287Z,34.20
2019-03-02T10:10:00.293Z,33.80
2019-03-02T10:11:02.630Z,35.20
2019-03-02T10:12:00.061Z,35.30
2019-03-02T10:13:00.254Z,35.10
2019-03-02T10:14:00.046Z,33.50
2019-03-02T10:15:00.801Z,33.20
2019-03-02T10:16:00.659Z,33.50
2019-03-02T10:17:00.028Z,32.00
2019-03-02T10:18:00.032Z,32.40
2019-03-02T10:19:00.227Z,31.10
2019-03-02T10:20:00.981Z,32.40
2019-03-02T10:21:00.021Z,32.60
2019-03-02T10:22:00.008Z,31.50
2019-03-02T10:23:02.080Z,32.50
2019-03-02T10:24:00.226Z,31.90
2019-03-02T10:24:59.988Z,31.80
2019-03-02T10:25:59.985Z,31.80
2019-03-02T10:26:59.982Z,31.70
2019-03-02T10:27:59.980Z,30.30
2019-03-02T10:29:00.045Z,30.50
2019-03-02T10:30:00.266Z,31.90
2019-03-02T10:31:02.606Z,31.60
2019-03-02T10:31:59.970Z,31.30
2019-03-02T10:32:59.949Z,31.20
2019-03-02T10:34:02.754Z,30.90
2019-03-02T10:34:59.927Z,30.60
2019-03-02T10:36:00.125Z,32.00
2019-03-02T10:37:00.132Z,29.80
2019-03-02T10:37:59.915Z,32.30
2019-03-02T10:38:59.930Z,30.20
2019-03-02T10:39:59.914Z,30.60
2019-03-02T10:40:59.894Z,31.20
2019-03-02T10:42:00.625Z,31.80
2019-03-02T10:42:59.889Z,30.80
2019-03-02T10:43:59.893Z,30.20
2019-03-02T10:44:59.898Z,31.30
2019-03-02T10:45:59.864Z,31.00
2019-03-02T10:46:59.864Z,29.80
2019-03-02T10:48:00.068Z,31.90
2019-03-02T10:48:59.857Z,31.20
2019-03-02T10:49:59.850Z,30.80
2019-03-02T10:51:02.309Z,30.90
2019-03-02T10:51:59.833Z,31.30
2019-03-02T10:52:59.837Z,30.60
2019-03-02T10:54:00.685Z,29.80
2019-03-02T10:55:00.017Z,30.00
2019-03-02T10:56:00.015Z,29.90
2019-03-02T10:57:01.017Z,30.00
2019-03-02T10:58:02.274Z,30.00
2019-03-02T10:58:59.805Z,29.70
2019-03-02T10:59:59.790Z,30.40
2019-03-02T11:01:03.325Z,31.20
2019-03-02T11:01:59.809Z,30.80
2019-03-02T11:02:59.771Z,29.40
2019-03-02T11:03:59.766Z,30.30
2019-03-02T11:04:59.763Z,30.40
2019-03-02T11:05:59.971Z,28.50
2019-03-02T11:06:59.746Z,30.40
2019-03-02T11:07:59.742Z,29.90
2019-03-02T11:09:04.058Z,29.30
2019-03-02T11:10:00.642Z,30.20
2019-03-02T11:10:59.749Z,29.60
2019-03-02T11:12:02.784Z,30.30
2019-03-02T11:12:59.729Z,29.50
2019-03-02T11:13:59.720Z,29.90
2019-03-02T11:14:59.717Z,29.00
2019-03-02T11:15:59.704Z,29.90
2019-03-02T11:17:01.542Z,28.10
2019-03-02T11:17:59.858Z,28.50
2019-03-02T11:18:59.686Z,29.50
2019-03-02T11:19:59.679Z,29.60
2019-03-02T11:21:00.083Z,28.40
2019-03-02T11:21:59.876Z,28.80
2019-03-02T11:22:59.657Z,29.60
2019-03-02T11:23:59.658Z,29.20
2019-03-02T11:24:59.657Z,29.10
2019-03-02T11:25:59.651Z,29.90
2019-03-02T11:26:59.853Z,30.50
2019-03-02T11:27:59.649Z,30.50
2019-03-02T11:28:59.650Z,30.00
2019-03-02T11:29:59.646Z,29.90
2019-03-02T11:30:59.827Z,30.10
2019-03-02T11:31:59.820Z,28.50
2019-03-02T11:32:59.600Z,28.20
2019-03-02T11:33:59.890Z,29.60
2019-03-02T11:34:59.801Z,29.60
2019-03-02T11:35:59.597Z,28.50
2019-03-02T11:36:59.585Z,28.90
2019-03-02T11:38:01.499Z,29.70
2019-03-02T11:38:59.588Z,28.40
2019-03-02T11:39:59.571Z,29.70
2019-03-02T11:40:59.572Z,29.30
2019-03-02T11:41:59.563Z,28.80
2019-03-02T11:42:59.557Z,30.60
2019-03-02T11:43:59.572Z,29.50
2019-03-02T11:44:59.545Z,29.10
2019-03-02T11:45:59.539Z,28.00
2019-03-02T11:46:59.557Z,28.70
2019-03-02T11:47:59.526Z,26.50
2019-03-02T11:48:59.524Z,28.80
2019-03-02T11:49:59.721Z,27.40
2019-03-02T11:50:59.512Z,28.40
2019-03-02T11:52:02.058Z,27.80
2019-03-02T11:52:59.700Z,27.30
2019-03-02T11:53:59.699Z,26.40
2019-03-02T11:55:00.912Z,26.90
2019-03-02T11:56:02.969Z,25.90
2019-03-02T11:56:59.487Z,26.30
2019-03-02T11:57:59.486Z,26.30
2019-03-02T11:58:59.482Z,26.30
2019-03-02T11:59:59.825Z,26.70
2019-03-02T12:00:59.477Z,26.20
2019-03-02T12:01:59.684Z,26.50
2019-03-02T12:03:02.443Z,26.90
2019-03-02T12:03:59.662Z,27.00
2019-03-02T12:04:59.453Z,26.50
2019-03-02T12:06:05.194Z,25.20
2019-03-02T12:06:59.428Z,26.80
2019-03-02T12:07:59.441Z,25.80
2019-03-02T12:09:01.195Z,26.90
2019-03-02T12:10:01.037Z,26.40
2019-03-02T12:10:59.410Z,25.80
2019-03-02T12:11:59.421Z,25.40
2019-03-02T12:12:59.400Z,26.00
2019-03-02T12:13:59.403Z,25.60
2019-03-02T12:14:59.407Z,25.20
2019-03-02T12:16:01.547Z,24.80
2019-03-02T12:17:00.284Z,25.50
2019-03-02T12:17:59.400Z,25.40
2019-03-02T12:18:59.380Z,25.60
2019-03-02T12:20:02.637Z,25.90
2019-03-02T12:20:59.366Z,26.00
2019-03-02T12:21:59.353Z,25.10
2019-03-02T12:22:59.561Z,26.20
2019-03-02T12:23:59.548Z,26.30
2019-03-02T12:24:59.630Z,24.50
2019-03-02T12:25:59.336Z,27.00
2019-03-02T12:26:59.341Z,26.40
2019-03-02T12:28:00.392Z,26.30
2019-03-02T12:28:59.521Z,26.30
2019-03-02T12:29:59.839Z,27.60
2019-03-02T12:30:59.326Z,24.60
2019-03-02T12:31:59.329Z,25.50
2019-03-02T12:32:59.328Z,26.80
2019-03-02T12:33:59.293Z,25.90
2019-03-02T12:34:59.296Z,26.00
2019-03-02T12:35:59.280Z,24.80
2019-03-02T12:36:59.284Z,25.30
2019-03-02T12:37:59.282Z,25.50
2019-03-02T12:38:59.264Z,25.10
2019-03-02T12:40:03.092Z,26.20
2019-03-02T12:40:59.272Z,24.90
2019-03-02T12:41:59.262Z,25.60
2019-03-02T12:42:59.242Z,24.40
2019-03-02T12:43:59.266Z,24.30
2019-03-02T12:44:59.256Z,23.90
2019-03-02T12:45:59.252Z,24.80
2019-03-02T12:46:59.607Z,23.00
2019-03-02T12:47:59.243Z,22.70
2019-03-02T12:48:59.225Z,22.00
2019-03-02T12:49:59.252Z,22.30
2019-03-02T12:51:02.726Z,22.80
2019-03-02T12:51:59.207Z,24.30